createdAt,value
2022-11-01T00:02:12.310Z,8.25
2022-11-01T00:04:40.218Z,8.19
2022-11-01T00:07:07.298Z,8.16
2022-11-01T00:09:35.019Z,8.16
2022-11-01T00:12:02.228Z,8.16
2022-11-01T00:14:29.465Z,8.18
2022-11-01T00:16:56.863Z,8.15
2022-11-01T00:19:24.194Z,8.16
2022-11-01T00:21:51.281Z,8.11
2022-11-01T00:24:18.350Z,8.06
2022-11-01T00:26:45.778Z,8.02
2022-11-01T00:29:13.182Z,8.04
2022-11-01T00:31:40.909Z,8.00
2022-11-01T00:34:08.406Z,7.97
2022-11-01T00:36:36.447Z,7.97
2022-11-01T00:39:03.992Z,7.99
2022-11-01T00:41:31.234Z,7.95
2022-11-01T00:43:58.438Z,7.91
2022-11-01T00:46:25.838Z,7.88
2022-11-01T00:48:52.940Z,7.87
2022-11-01T00:51:21.693Z,7.88
2022-11-01T00:53:49.000Z,7.90
2022-11-01T00:56:16.554Z,7.88
2022-11-01T00:58:44.042Z,7.88
2022-11-01T01:01:11.324Z,7.83
2022-11-01T01:03:39.286Z,7.82
2022-11-01T01:06:06.445Z,7.83
2022-11-01T01:08:33.785Z,7.75
2022-11-01T01:11:01.157Z,7.72
2022-11-01T01:13:28.223Z,7.68
2022-11-01T01:15:55.804Z,7.67
2022-11-01T01:18:22.987Z,7.67
2022-11-01T01:20:50.088Z,7.70
2022-11-01T01:23:17.440Z,7.70
2022-11-01T01:25:44.685Z,7.67
2022-11-01T01:28:11.806Z,7.61
2022-11-01T01:30:42.616Z,7.61
2022-11-01T01:35:44.025Z,7.63
2022-11-01T01:38:11.417Z,7.61
2022-11-01T01:40:38.704Z,7.59
2022-11-01T01:43:06.037Z,7.56
2022-11-01T01:45:39.610Z,7.58
2022-11-01T01:48:27.807Z,7.57
2022-11-01T01:51:02.918Z,7.58
2022-11-01T01:53:32.330Z,7.59
2022-11-01T01:56:06.652Z,7.59
2022-11-01T01:58:42.173Z,7.56
2022-11-01T02:01:09.772Z,7.50
2022-11-01T02:03:38.859Z,7.48
2022-11-01T02:06:15.492Z,7.44
2022-11-01T02:08:45.126Z,7.43
2022-11-01T02:11:14.845Z,7.37
2022-11-01T02:13:42.201Z,7.33
2022-11-01T02:16:23.469Z,7.32
2022-11-01T02:19:09.174Z,7.30
2022-11-01T02:22:01.104Z,7.31
2022-11-01T02:24:54.938Z,7.29
2022-11-01T02:27:42.898Z,7.31
2022-11-01T02:30:23.178Z,7.32
2022-11-01T02:33:13.627Z,7.30
2022-11-01T02:36:05.062Z,7.29
2022-11-01T02:38:40.596Z,7.30
2022-11-01T02:41:24.186Z,7.29
2022-11-01T02:44:00.342Z,7.24
2022-11-01T02:46:49.763Z,7.22
2022-11-01T02:49:19.646Z,7.17
2022-11-01T02:51:47.457Z,7.18
2022-11-01T02:54:32.095Z,7.18
2022-11-01T02:57:04.819Z,7.18
2022-11-01T02:59:44.804Z,7.16
2022-11-01T03:02:39.871Z,7.13
2022-11-01T03:05:09.752Z,7.12
2022-11-01T03:07:36.917Z,7.14
2022-11-01T03:10:04.650Z,7.13
2022-11-01T03:12:36.977Z,7.12
2022-11-01T03:15:21.232Z,7.14
2022-11-01T03:18:05.609Z,7.12
2022-11-01T03:20:48.136Z,7.07
2022-11-01T03:23:22.805Z,7.07
2022-11-01T03:25:56.428Z,6.99
2022-11-01T03:28:36.593Z,6.96
2022-11-01T03:31:26.116Z,6.96
2022-11-01T03:33:57.036Z,6.93
2022-11-01T03:36:31.170Z,6.92
2022-11-01T03:39:03.198Z,6.91
2022-11-01T03:41:36.739Z,6.91
2022-11-01T03:44:05.204Z,6.91
2022-11-01T03:46:33.028Z,6.90
2022-11-01T03:49:00.313Z,6.88
2022-11-01T03:51:27.312Z,6.88
2022-11-01T03:53:57.163Z,6.84
2022-11-01T03:56:24.428Z,6.88
2022-11-01T03:58:51.598Z,6.85
2022-11-01T04:01:18.978Z,6.86
2022-11-01T04:03:46.223Z,6.84
2022-11-01T04:06:13.366Z,6.84
2022-11-01T04:08:40.611Z,6.84
2022-11-01T04:11:07.831Z,6.84
2022-11-01T04:13:34.851Z,6.79
2022-11-01T04:16:20.356Z,6.76
2022-11-01T04:19:06.075Z,6.74
2022-11-01T04:21:33.510Z,6.74
2022-11-01T04:24:00.807Z,6.73
2022-11-01T04:26:27.895Z,6.69
2022-11-01T04:28:57.989Z,6.66
2022-11-01T04:31:31.362Z,6.65
2022-11-01T04:33:59.623Z,6.60
2022-11-01T04:36:27.436Z,6.65
2022-11-01T04:38:57.268Z,6.64
2022-11-01T04:41:30.627Z,6.62
2022-11-01T04:44:00.270Z,6.61
2022-11-01T04:46:32.023Z,6.57
2022-11-01T04:48:59.254Z,6.56
2022-11-01T04:51:26.422Z,6.57
2022-11-01T04:53:53.587Z,6.59
2022-11-01T04:56:20.686Z,6.56
2022-11-01T04:58:47.614Z,6.58
2022-11-01T05:01:15.377Z,6.55
2022-11-01T05:03:42.628Z,6.56
2022-11-01T05:06:09.924Z,6.51
2022-11-01T05:08:37.008Z,6.53
2022-11-01T05:11:04.297Z,6.56
2022-11-01T05:13:31.306Z,6.57
2022-11-01T05:16:18.450Z,6.55
2022-11-01T05:18:46.281Z,6.51
2022-11-01T05:21:13.288Z,6.51
2022-11-01T05:23:40.276Z,6.55
2022-11-01T05:26:07.570Z,6.57
2022-11-01T05:28:35.087Z,6.58
2022-11-01T05:31:02.395Z,6.62
2022-11-01T05:33:29.314Z,6.63
2022-11-01T05:35:56.430Z,6.65
2022-11-01T05:38:23.638Z,6.69
2022-11-01T05:40:50.793Z,6.76
2022-11-01T05:43:17.776Z,6.78
2022-11-01T05:45:45.100Z,6.77
2022-11-01T05:48:12.336Z,6.82
2022-11-01T05:50:39.507Z,6.90
2022-11-01T05:53:08.399Z,6.96
2022-11-01T05:55:36.731Z,7.01
2022-11-01T05:58:04.132Z,7.05
2022-11-01T06:00:31.832Z,7.13
2022-11-01T06:02:59.654Z,7.19
2022-11-01T06:05:28.185Z,7.27
2022-11-01T06:07:55.484Z,7.34
2022-11-01T06:10:22.810Z,7.39
2022-11-01T06:12:49.919Z,7.47
2022-11-01T06:15:17.026Z,7.52
2022-11-01T06:17:43.994Z,7.61
2022-11-01T06:20:11.949Z,7.70
2022-11-01T06:22:39.258Z,7.80
2022-11-01T06:25:07.162Z,7.90
2022-11-01T06:27:34.088Z,8.02
2022-11-01T06:30:01.207Z,8.09
2022-11-01T06:32:28.104Z,8.33
2022-11-01T06:34:55.109Z,8.47
2022-11-01T06:37:22.139Z,8.70
2022-11-01T06:39:49.488Z,8.92
2022-11-01T06:42:16.859Z,9.18
2022-11-01T06:44:44.148Z,9.38
2022-11-01T06:47:13.952Z,9.65
2022-11-01T06:49:41.568Z,9.93
2022-11-01T06:52:09.359Z,10.21
2022-11-01T06:54:36.565Z,10.48
2022-11-01T06:57:03.625Z,10.85
2022-11-01T06:59:30.495Z,11.09
2022-11-01T07:01:57.749Z,11.38
2022-11-01T07:04:27.336Z,11.62
2022-11-01T07:06:54.301Z,11.93
2022-11-01T07:09:21.299Z,12.15
2022-11-01T07:11:48.225Z,12.44
2022-11-01T07:14:15.176Z,12.66
2022-11-01T07:16:42.211Z,12.88
2022-11-01T07:19:09.248Z,13.13
2022-11-01T07:21:36.308Z,13.40
2022-11-01T07:24:03.330Z,13.60
2022-11-01T07:26:30.486Z,13.81
2022-11-01T07:28:57.415Z,14.06
2022-11-01T07:31:25.642Z,14.26
2022-11-01T07:33:52.729Z,14.46
2022-11-01T07:36:20.123Z,14.68
2022-11-01T07:38:47.223Z,14.84
2022-11-01T07:41:14.275Z,15.05
2022-11-01T07:43:41.440Z,15.23
2022-11-01T07:46:08.640Z,15.41
2022-11-01T07:48:37.145Z,15.52
2022-11-01T07:51:06.357Z,15.80
2022-11-01T07:53:34.289Z,16.02
2022-11-01T07:56:02.088Z,16.24
2022-11-01T07:58:29.357Z,16.36
2022-11-01T08:00:56.508Z,16.57
2022-11-01T08:03:24.337Z,16.82
2022-11-01T08:05:51.814Z,16.97
2022-11-01T08:08:19.255Z,17.13
2022-11-01T08:10:46.614Z,17.27
2022-11-01T08:13:19.554Z,17.44
2022-11-01T08:15:48.236Z,17.65
2022-11-01T08:18:16.476Z,17.84
2022-11-01T08:20:45.695Z,18.02
2022-11-01T08:23:13.397Z,18.22
2022-11-01T08:25:40.302Z,18.39
2022-11-01T08:28:11.358Z,18.54
2022-11-01T08:30:40.498Z,18.73
2022-11-01T08:33:07.732Z,18.90
2022-11-01T08:35:38.144Z,19.02
2022-11-01T08:38:05.553Z,19.15
2022-11-01T08:40:33.574Z,19.37
2022-11-01T08:43:01.147Z,19.48
2022-11-01T08:45:29.068Z,19.60
2022-11-01T08:48:03.613Z,19.74
2022-11-01T08:50:32.079Z,19.85
2022-11-01T08:52:59.222Z,19.99
2022-11-01T08:55:26.652Z,20.16
2022-11-01T08:57:53.700Z,20.31
2022-11-01T09:00:21.693Z,20.46
2022-11-01T09:02:48.696Z,20.62
2022-11-01T09:05:15.919Z,20.75
2022-11-01T09:07:42.870Z,20.91
2022-11-01T09:10:10.771Z,21.03
2022-11-01T09:12:38.415Z,21.13
2022-11-01T09:15:06.113Z,21.30
2022-11-01T09:17:33.241Z,21.40
2022-11-01T09:20:00.216Z,21.52
2022-11-01T09:22:27.489Z,21.60
2022-11-01T09:24:57.173Z,21.74
2022-11-01T09:27:24.839Z,21.75
2022-11-01T09:29:52.161Z,21.82
2022-11-01T09:32:21.442Z,21.95
2022-11-01T09:34:49.573Z,22.01
2022-11-01T09:37:17.190Z,22.07
2022-11-01T09:39:44.193Z,22.15
2022-11-01T09:42:21.981Z,22.19
2022-11-01T09:44:58.049Z,22.32
2022-11-01T09:47:28.684Z,22.42
2022-11-01T09:50:12.977Z,22.38
2022-11-01T09:52:41.396Z,22.39
2022-11-01T09:55:16.749Z,22.47
2022-11-01T09:58:14.794Z,22.52
2022-11-01T10:00:49.045Z,22.57
2022-11-01T10:03:21.380Z,22.60
2022-11-01T10:06:09.968Z,22.59
2022-11-01T10:08:36.827Z,22.63
2022-11-01T10:11:21.899Z,22.70
2022-11-01T10:14:05.256Z,22.70
2022-11-01T10:16:42.260Z,22.72
2022-11-01T10:19:19.541Z,22.78
2022-11-01T10:21:56.993Z,22.86
2022-11-01T10:24:26.861Z,22.92
2022-11-01T10:27:15.369Z,22.93
2022-11-01T10:29:57.867Z,23.03
2022-11-01T10:32:34.006Z,23.04
2022-11-01T10:35:07.256Z,23.02
2022-11-01T10:37:43.733Z,22.95
2022-11-01T10:40:34.188Z,22.97
2022-11-01T10:43:02.270Z,22.99
2022-11-01T10:45:31.118Z,22.99
2022-11-01T10:47:59.072Z,23.03
2022-11-01T10:50:29.222Z,23.09
2022-11-01T10:53:18.786Z,23.15
2022-11-01T10:55:53.032Z,23.17
2022-11-01T10:58:29.019Z,23.18
2022-11-01T11:00:56.451Z,23.28
2022-11-01T11:03:25.250Z,23.32
2022-11-01T11:05:54.609Z,23.34
2022-11-01T11:08:24.104Z,23.45
2022-11-01T11:10:52.378Z,23.53
2022-11-01T11:13:23.046Z,23.57
2022-11-01T11:16:06.422Z,23.62
2022-11-01T11:18:39.305Z,23.59
2022-11-01T11:21:14.053Z,23.58
2022-11-01T11:23:46.466Z,23.66
2022-11-01T11:26:17.948Z,23.76
2022-11-01T11:28:57.298Z,23.87
2022-11-01T11:31:31.724Z,23.88
2022-11-01T11:34:17.033Z,23.99
2022-11-01T11:36:49.985Z,24.03
2022-11-01T11:39:57.725Z,23.92
2022-11-01T11:42:30.606Z,23.83
2022-11-01T11:45:20.615Z,23.94
2022-11-01T11:47:50.974Z,23.94
2022-11-01T11:50:21.169Z,23.94
2022-11-01T11:52:52.006Z,23.99
2022-11-01T11:55:48.025Z,24.00
2022-11-01T11:58:35.491Z,24.05
2022-11-01T12:01:08.200Z,24.04
2022-11-01T12:03:54.726Z,24.06
2022-11-01T12:06:25.455Z,23.97
2022-11-01T12:08:55.260Z,23.88
2022-11-01T12:11:37.359Z,23.88
2022-11-01T12:14:24.620Z,23.94
2022-11-01T12:16:51.673Z,23.82
2022-11-01T12:19:26.729Z,23.87
2022-11-01T12:21:54.924Z,23.85
2022-11-01T12:24:47.205Z,23.85
2022-11-01T12:27:26.153Z,23.80
2022-11-01T12:30:00.284Z,23.76
2022-11-01T12:32:33.817Z,23.69
2022-11-01T12:35:06.637Z,23.66
2022-11-01T12:38:13.242Z,23.71
2022-11-01T12:40:43.842Z,23.65
2022-11-01T12:43:23.539Z,23.66
2022-11-01T12:46:11.790Z,23.66
2022-11-01T12:49:03.103Z,23.60
2022-11-01T12:51:52.811Z,23.63
2022-11-01T12:54:29.372Z,23.57
2022-11-01T12:56:57.085Z,23.52
2022-11-01T12:59:37.759Z,23.54
2022-11-01T13:02:31.288Z,23.48
2022-11-01T13:05:07.863Z,23.40
2022-11-01T13:07:58.493Z,23.35
2022-11-01T13:10:36.555Z,23.33
2022-11-01T13:13:47.996Z,23.38
2022-11-01T13:16:18.991Z,23.39
2022-11-01T13:19:14.388Z,23.32
2022-11-01T13:21:55.011Z,23.25
2022-11-01T13:24:37.553Z,23.20
2022-11-01T13:27:11.773Z,23.10
2022-11-01T13:29:52.804Z,23.16
2022-11-01T13:32:43.643Z,23.10
2022-11-01T13:35:29.212Z,23.09
2022-11-01T13:38:01.384Z,23.03
2022-11-01T13:40:36.045Z,23.02
2022-11-01T13:43:27.526Z,22.99
2022-11-01T13:46:29.514Z,22.89
2022-11-01T13:49:28.609Z,22.85
2022-11-01T13:52:24.293Z,22.75
2022-11-01T13:55:22.003Z,22.69
2022-11-01T13:57:49.229Z,22.65
2022-11-01T14:00:44.870Z,22.61
2022-11-01T14:03:27.360Z,22.52
2022-11-01T14:06:36.621Z,22.46
2022-11-01T14:09:28.513Z,22.37
2022-11-01T14:12:04.698Z,22.27
2022-11-01T14:14:32.104Z,22.17
2022-11-01T14:17:20.954Z,22.06
2022-11-01T14:20:10.886Z,21.98
2022-11-01T14:22:40.601Z,21.88
2022-11-01T14:25:14.024Z,21.74
2022-11-01T14:27:50.459Z,21.58
2022-11-01T14:30:23.963Z,21.39
2022-11-01T14:32:57.532Z,21.28
2022-11-01T14:35:28.473Z,21.05
2022-11-01T14:38:03.440Z,20.86
2022-11-01T14:40:33.781Z,20.73
2022-11-01T14:43:24.484Z,20.54
2022-11-01T14:45:58.046Z,20.32
2022-11-01T14:49:00.296Z,20.07
2022-11-01T14:51:33.183Z,19.84
2022-11-01T14:54:16.163Z,19.61
2022-11-01T14:56:49.855Z,19.37
2022-11-01T14:59:28.807Z,19.12
2022-11-01T15:02:03.012Z,18.87
2022-11-01T15:04:38.262Z,18.64
2022-11-01T15:07:19.582Z,18.36
2022-11-01T15:10:12.724Z,18.06
2022-11-01T15:12:49.909Z,17.81
2022-11-01T15:15:23.974Z,17.58
2022-11-01T15:17:57.843Z,17.33
2022-11-01T15:20:38.793Z,17.14
2022-11-01T15:23:14.961Z,16.90
2022-11-01T15:25:43.550Z,16.70
2022-11-01T15:28:22.992Z,16.51
2022-11-01T15:30:58.240Z,16.30
2022-11-01T15:33:35.991Z,16.10
2022-11-01T15:36:20.488Z,15.96
2022-11-01T15:38:56.533Z,15.84
2022-11-01T15:41:32.481Z,15.72
2022-11-01T15:44:06.314Z,15.56
2022-11-01T15:46:43.698Z,15.39
2022-11-01T15:49:25.039Z,15.29
2022-11-01T15:51:56.472Z,15.14
2022-11-01T15:54:42.957Z,15.03
2022-11-01T15:57:24.573Z,14.86
2022-11-01T15:59:57.783Z,14.72
2022-11-01T16:02:35.701Z,14.61
2022-11-01T16:05:03.505Z,14.50
2022-11-01T16:07:33.605Z,14.40
2022-11-01T16:10:03.860Z,14.26
2022-11-01T16:12:36.562Z,14.13
2022-11-01T16:15:07.762Z,14.07
2022-11-01T16:17:40.673Z,14.06
2022-11-01T16:20:41.301Z,13.96
2022-11-01T16:23:12.590Z,13.86
2022-11-01T16:25:40.081Z,13.75
2022-11-01T16:28:28.875Z,13.65
2022-11-01T16:30:58.015Z,13.56
2022-11-01T16:33:28.053Z,13.51
2022-11-01T16:36:00.714Z,13.43
2022-11-01T16:38:33.741Z,13.41
2022-11-01T16:41:20.887Z,13.34
2022-11-01T16:43:52.526Z,13.31
2022-11-01T16:46:20.891Z,13.24
2022-11-01T16:49:00.165Z,13.17
2022-11-01T16:51:29.374Z,13.13
2022-11-01T16:53:58.553Z,13.06
2022-11-01T16:56:37.112Z,12.95
2022-11-01T16:59:42.496Z,12.88
2022-11-01T17:02:25.306Z,12.84
2022-11-01T17:04:59.217Z,12.82
2022-11-01T17:07:26.757Z,12.77
2022-11-01T17:09:53.797Z,12.71
2022-11-01T17:12:21.654Z,12.57
2022-11-01T17:14:57.542Z,12.54
2022-11-01T17:18:33.784Z,12.48
2022-11-01T17:20:53.135Z,12.46
2022-11-01T17:23:23.831Z,12.40
2022-11-01T17:25:53.972Z,12.24
2022-11-01T17:28:24.235Z,12.16
2022-11-01T17:30:51.955Z,12.08
2022-11-01T17:33:20.820Z,12.09
2022-11-01T17:35:48.811Z,12.01
2022-11-01T17:38:21.159Z,11.92
2022-11-01T17:40:49.892Z,11.91
2022-11-01T17:43:19.054Z,11.89
2022-11-01T17:45:47.226Z,11.91
2022-11-01T17:48:14.895Z,11.87
2022-11-01T17:50:42.472Z,11.80
2022-11-01T17:53:13.321Z,11.67
2022-11-01T17:55:43.967Z,11.64
2022-11-01T17:58:11.744Z,11.61
2022-11-01T18:00:43.163Z,11.58
2022-11-01T18:03:10.894Z,11.56
2022-11-01T18:05:37.939Z,11.49
2022-11-01T18:08:16.541Z,11.48
2022-11-01T18:11:15.762Z,11.41
2022-11-01T18:14:04.030Z,11.35
2022-11-01T18:16:48.928Z,11.33
2022-11-01T18:19:30.287Z,11.30
2022-11-01T18:22:20.067Z,11.28
2022-11-01T18:24:53.882Z,11.24
2022-11-01T18:27:31.245Z,11.17
2022-11-01T18:29:58.174Z,11.13
2022-11-01T18:32:32.388Z,11.13
2022-11-01T18:35:05.760Z,11.08
2022-11-01T18:37:51.508Z,10.99
2022-11-01T18:40:29.663Z,10.94
2022-11-01T18:42:56.942Z,10.91
2022-11-01T18:45:33.065Z,10.84
2022-11-01T18:48:13.577Z,10.85
2022-11-01T18:50:40.501Z,10.84
2022-11-01T18:53:14.836Z,10.81
2022-11-01T18:55:44.652Z,10.74
2022-11-01T18:58:16.867Z,10.66
2022-11-01T19:00:44.603Z,10.65
2022-11-01T19:03:13.739Z,10.61
2022-11-01T19:05:42.389Z,10.51
2022-11-01T19:08:25.680Z,10.46
2022-11-01T19:10:54.470Z,10.40
2022-11-01T19:13:28.899Z,10.40
2022-11-01T19:15:58.265Z,10.35
2022-11-01T19:18:25.600Z,10.37
2022-11-01T19:20:58.624Z,10.36
2022-11-01T19:23:32.414Z,10.33
2022-11-01T19:25:59.460Z,10.29
2022-11-01T19:28:35.437Z,10.29
2022-11-01T19:31:27.607Z,10.27
2022-11-01T19:34:02.653Z,10.21
2022-11-01T19:36:40.752Z,10.18
2022-11-01T19:39:22.139Z,10.15
2022-11-01T19:41:49.309Z,10.12
2022-11-01T19:44:21.750Z,10.10
2022-11-01T19:46:49.266Z,10.08
2022-11-01T19:49:27.757Z,10.04
2022-11-01T19:52:24.511Z,10.00
2022-11-01T19:54:53.476Z,9.98
2022-11-01T19:57:33.965Z,9.92
2022-11-01T20:00:25.302Z,9.90
2022-11-01T20:02:55.433Z,9.84
2022-11-01T20:05:33.480Z,9.77
2022-11-01T20:08:22.416Z,9.77
2022-11-01T20:10:49.605Z,9.71
2022-11-01T20:13:16.960Z,9.70
2022-11-01T20:15:44.556Z,9.69
2022-11-01T20:18:11.551Z,9.66
2022-11-01T20:20:44.349Z,9.68
2022-11-01T20:23:25.884Z,9.62
2022-11-01T20:25:54.116Z,9.62
2022-11-01T20:28:21.317Z,9.54
2022-11-01T20:30:48.206Z,9.49
2022-11-01T20:33:16.369Z,9.42
2022-11-01T20:35:43.870Z,9.38
2022-11-01T20:38:11.075Z,9.37
2022-11-01T20:40:38.049Z,9.35
2022-11-01T20:43:06.745Z,9.32
2022-11-01T20:45:37.529Z,9.33
2022-11-01T20:48:07.713Z,9.28
2022-11-01T20:50:35.763Z,9.30
2022-11-01T20:53:02.883Z,9.27
2022-11-01T20:55:29.984Z,9.24
2022-11-01T20:57:57.135Z,9.21
2022-11-01T21:00:24.257Z,9.18
2022-11-01T21:02:51.708Z,9.17
2022-11-01T21:05:23.274Z,9.18
2022-11-01T21:07:55.100Z,9.16
2022-11-01T21:10:35.075Z,9.12
2022-11-01T21:13:07.501Z,9.08
2022-11-01T21:15:39.368Z,9.08
2022-11-01T21:18:09.824Z,9.04
2022-11-01T21:20:42.748Z,9.04
2022-11-01T21:23:21.579Z,9.04
2022-11-01T21:26:00.808Z,9.01
2022-11-01T21:28:34.527Z,8.97
2022-11-01T21:31:23.218Z,8.90
2022-11-01T21:33:54.419Z,8.88
2022-11-01T21:36:21.626Z,8.84
2022-11-01T21:39:00.176Z,8.82
2022-11-01T21:41:42.548Z,8.77
2022-11-01T21:44:18.651Z,8.75
2022-11-01T21:46:54.919Z,8.73
2022-11-01T21:49:33.365Z,8.73
2022-11-01T21:52:02.619Z,8.71
2022-11-01T21:54:31.656Z,8.66
2022-11-01T21:56:58.890Z,8.66
2022-11-01T21:59:27.209Z,8.58
2022-11-01T22:01:56.347Z,8.53
2022-11-01T22:04:28.490Z,8.55
2022-11-01T22:07:03.937Z,8.52
2022-11-01T22:09:32.206Z,8.51
2022-11-01T22:11:59.645Z,8.49
2022-11-01T22:14:26.573Z,8.38
2022-11-01T22:16:53.663Z,8.36
2022-11-01T22:19:21.022Z,8.36
2022-11-01T22:21:48.136Z,8.32
2022-11-01T22:24:15.067Z,8.38
2022-11-01T22:26:42.111Z,8.39
2022-11-01T22:29:09.390Z,8.37
2022-11-01T22:31:36.432Z,8.32
2022-11-01T22:34:03.966Z,8.27
2022-11-01T22:36:34.895Z,8.22
2022-11-01T22:39:27.051Z,8.11
2022-11-01T22:41:55.200Z,8.08
2022-11-01T22:44:30.732Z,8.10
2022-11-01T22:47:00.110Z,8.08
2022-11-01T22:49:31.093Z,8.04
2022-11-01T22:52:03.457Z,8.07
2022-11-01T22:54:38.934Z,8.02
2022-11-01T22:57:08.956Z,8.03
2022-11-01T22:59:48.360Z,8.04
2022-11-01T23:02:37.567Z,8.04
2022-11-01T23:05:07.688Z,8.03
2022-11-01T23:07:49.167Z,7.95
2022-11-01T23:10:46.036Z,7.96
2022-11-01T23:13:31.465Z,7.96
2022-11-01T23:16:11.057Z,7.94
2022-11-01T23:18:40.568Z,7.94
2022-11-01T23:21:09.293Z,7.96
2022-11-01T23:23:41.072Z,7.95
2022-11-01T23:26:08.695Z,7.89
2022-11-01T23:28:37.484Z,7.90
2022-11-01T23:31:05.820Z,7.83
2022-11-01T23:33:52.259Z,7.86
2022-11-01T23:36:23.936Z,7.84
2022-11-01T23:39:04.017Z,7.82
2022-11-01T23:41:41.190Z,7.83
2022-11-01T23:44:37.925Z,7.83
2022-11-01T23:47:40.441Z,7.78
2022-11-01T23:50:16.582Z,7.76
2022-11-01T23:52:47.193Z,7.73
2022-11-01T23:55:25.481Z,7.70
2022-11-01T23:58:04.281Z,7.68
